Wetterdaten: Dezember 2012
Datum Temp Feuchte Luftdruck Regen Wind Richtung Sonnenschein UV Solar Windben
01.12.2012 0,4 C 96 % 1010,7 hPa 0,6 l/m 7,0 km/h S-SO 0,00 h 0,0 UV-I 18 W/m 13,6 km/h
02.12.2012 0,3 C 97 % 1010,1 hPa 5,0 l/m 4,5 km/h S 0,00 h 0,0 UV-I 17 W/m 11,3 km/h
03.12.2012 -0,4 C 95 % 1006,5 hPa 4,2 l/m 2,7 km/h S-SO 0,75 h 0,5 UV-I 69 W/m 6,0 km/h
04.12.2012 1,9 C 94 % 996,2 hPa 3,6 l/m 4,9 km/h S-SW 0,08 h 0,5 UV-I 37 W/m 11,7 km/h
05.12.2012 -0,6 C 93 % 1001,9 hPa 0,0 l/m 1,9 km/h S-SW 1,83 h 0,5 UV-I 86 W/m 8,9 km/h
06.12.2012 -3,9 C 91 % 1013,2 hPa 0,4 l/m 3,6 km/h N-NW 0,50 h 0,5 UV-I 55 W/m 13,7 km/h
07.12.2012 -3,4 C 85 % 1007,5 hPa 0,0 l/m 9,0 km/h S-SO 1,42 h 0,6 UV-I 86 W/m 16,1 km/h
08.12.2012 -4,9 C 88 % 1022,3 hPa 0,0 l/m 0,3 km/h S 2,25 h 0,6 UV-I 93 W/m 2,8 km/h
09.12.2012 0,8 C 98 % 1007,9 hPa 26,4 l/m 14,1 km/h S-SW 0,00 h 0,0 UV-I 7 W/m 24,5 km/h
10.12.2012 -0,7 C 97 % 1010,6 hPa 6,0 l/m 12,6 km/h N-NW 0,00 h 0,5 UV-I 29 W/m 26,1 km/h
11.12.2012 -3,2 C 93 % 1023,4 hPa 0,2 l/m 2,5 km/h N-NW 0,42 h 0,0 UV-I 47 W/m 4,0 km/h
12.12.2012 -1,6 C 95 % 1018,8 hPa 5,6 l/m 0,5 km/h W 0,00 h 0,0 UV-I 13 W/m 7,3 km/h
13.12.2012 -4,0 C 90 % 1010,4 hPa 0,0 l/m 1,3 km/h S-SO 0,00 h 0,0 UV-I 19 W/m 4,4 km/h
14.12.2012 1,2 C 95 % 999,4 hPa 5,2 l/m 18,9 km/h S-SO 0,00 h 0,5 UV-I 66 W/m 28,9 km/h
15.12.2012 3,8 C 94 % 1001,6 hPa 0,2 l/m 2,9 km/h S 1,08 h 0,6 UV-I 67 W/m 6,0 km/h
16.12.2012 3,1 C 97 % 1004,4 hPa 2,6 l/m 0,0 km/h S 0,00 h 0,5 UV-I 30 W/m 0,0 km/h
17.12.2012 3,6 C 98 % 1004,9 hPa 3,8 l/m 0,1 km/h S 0,00 h 0,5 UV-I 41 W/m 1,6 km/h
18.12.2012 3,1 C 97 % 1014,9 hPa 6,4 l/m 0,0 km/h W 0,25 h 0,5 UV-I 43 W/m 0,0 km/h
19.12.2012 2,0 C 98 % 1023,4 hPa 0,0 l/m 0,2 km/h SO 0,17 h 0,5 UV-I 51 W/m 1,2 km/h
20.12.2012 1,2 C 92 % 1015,0 hPa 0,0 l/m 8,1 km/h SO 0,92 h 0,6 UV-I 77 W/m 20,1 km/h
21.12.2012 0,0 C 97 % 1013,0 hPa 3,8 l/m 1,4 km/h SO 0,00 h 0,0 UV-I 41 W/m 7,6 km/h
22.12.2012 4,3 C 97 % 1012,0 hPa 7,8 l/m 11,0 km/h S-SO 0,00 h 0,5 UV-I 38 W/m 20,9 km/h
23.12.2012 8,1 C 98 % 1005,6 hPa 41,4 l/m 4,2 km/h S-SW 0,00 h 0,0 UV-I 13 W/m 21,0 km/h
24.12.2012 8,4 C 90 % 1003,7 hPa 7,2 l/m 10,0 km/h S 0,00 h 0,0 UV-I 22 W/m 16,9 km/h
25.12.2012 7,5 C 88 % 999,5 hPa 4,2 l/m 14,2 km/h S 0,42 h 0,0 UV-I 25 W/m 25,7 km/h
26.12.2012 5,5 C 92 % 1006,6 hPa 2,4 l/m 7,5 km/h S-SW 0,00 h 0,5 UV-I 36 W/m 17,7 km/h
27.12.2012 5,7 C 92 % 1004,8 hPa 10,8 l/m 3,5 km/h S-SW 1,58 h 0,6 UV-I 73 W/m 10,1 km/h
28.12.2012 2,0 C 93 % 1023,4 hPa 0,6 l/m 11,1 km/h S-SO 3,83 h 0,6 UV-I 106 W/m 18,1 km/h
29.12.2012 7,2 C 90 % 1012,8 hPa 0,8 l/m 20,1 km/h S-SO 1,08 h 0,6 UV-I 78 W/m 28,2 km/h
30.12.2012 5,5 C 85 % 1013,5 hPa 2,2 l/m 18,6 km/h S-SW 1,08 h 0,5 UV-I 64 W/m 31,8 km/h
31.12.2012 6,9 C 84 % 1009,5 hPa 0,0 l/m 21,4 km/h S 0,08 h 0,5 UV-I 59 W/m 36,6 km/h
Min-Datum 08.12.12 30.12.12 04.12.12 24 Tage 01.12.12 - - - - 01.12.12
Min-Zeit 08:35 14:20 15:25 - 00:00 - - - - 00:00
Minimum -8,9 C 76 % 993,9 hPa - 0,0 km/h - - - - 0,0 km/h
Max-Datum 23.12.12 08.12.12 28.12.12 23.12.12 14.12.12 - 28.12.12 15.12.12 08.12.12 25.12.12
Max-Zeit 13:00 09:50 11:05 01:30 21:05 - 14:40 12:20 12:10 22:10
Maximum 10,8 C 100 % 1026,4 hPa 41,4 l/m 33,6 km/h
S-SO
- 3,75 h 0,8 UV-I 325 W/m 54,7 km/h
S
Durchschnitt 1,9 C 93 % 1009,9 hPa #151,4 l/m 7,0 km/h S #17:45 h 0,5 UV-I 49 W/m 14,3 km/h

Durchschnitt Minimum Temp.-0,5 C
Durchschnitt Maximum Temp.3,8 C